BOX585 KLAX-KCVG
Flight info
| Callsign | BOX585 |
|---|---|
| Flight time | N/A |
| Altitude | 35000 |
| Route | DOTSS2 CLEEE PKE J134 LANCY INW GUP KA36U KK42A KK45G FAM TERGE SARGO5 |
| Aircraft | B77L/H-SDE1E2E3FGHIJ2J3J4J5M1RWXY/LB1D1 |
Departure
| Time | 2026-05-06 13:21 |
|---|---|
| Airport | Los Angeles International Airport (KLAX) |
Arrival
| Time | N/A |
|---|---|
| Airport | Cincinnati Northern Kentucky International Airport (KCVG) |
| Time | Latitude | Longitude | Altitude | Speed | Heading |
|---|---|---|---|---|---|
| 2026-05-06 12:32 | 33.93318 | -118.40294 | 130 ft | 0 kts | 174° |
| 2026-05-06 13:00 | 33.93320 | -118.40294 | 112 ft | 1 kts | 174° |
| 2026-05-06 13:00 | 33.93335 | -118.40297 | 125 ft | 3 kts | 163° |
| 2026-05-06 13:00 | 33.93354 | -118.40306 | 125 ft | 3 kts | 148° |
| 2026-05-06 13:01 | 33.93370 | -118.40319 | 125 ft | 2 kts | 143° |
| 2026-05-06 13:01 | 33.93373 | -118.40322 | 125 ft | 0 kts | 143° |
| 2026-05-06 13:06 | 33.93373 | -118.40321 | 125 ft | 1 kts | 143° |
| 2026-05-06 13:06 | 33.93366 | -118.40302 | 125 ft | 4 kts | 96° |
| 2026-05-06 13:06 | 33.93390 | -118.40273 | 125 ft | 5 kts | 38° |
| 2026-05-06 13:07 | 33.93410 | -118.40236 | 127 ft | 5 kts | 70° |
| 2026-05-06 13:07 | 33.93418 | -118.40193 | 130 ft | 5 kts | 81° |
| 2026-05-06 13:07 | 33.93422 | -118.40147 | 125 ft | 6 kts | 84° |
| 2026-05-06 13:07 | 33.93429 | -118.40079 | 129 ft | 11 kts | 83° |
| 2026-05-06 13:08 | 33.93441 | -118.39959 | 127 ft | 18 kts | 83° |
| 2026-05-06 13:08 | 33.93459 | -118.39794 | 127 ft | 20 kts | 81° |
| 2026-05-06 13:08 | 33.93476 | -118.39625 | 130 ft | 20 kts | 83° |
| 2026-05-06 13:08 | 33.93492 | -118.39455 | 130 ft | 20 kts | 83° |
| 2026-05-06 13:09 | 33.93509 | -118.39288 | 125 ft | 20 kts | 83° |
| 2026-05-06 13:09 | 33.93527 | -118.39118 | 128 ft | 20 kts | 83° |
| 2026-05-06 13:09 | 33.93545 | -118.38948 | 127 ft | 20 kts | 83° |
| 2026-05-06 13:09 | 33.93563 | -118.38779 | 128 ft | 20 kts | 82° |
| 2026-05-06 13:10 | 33.93580 | -118.38609 | 125 ft | 20 kts | 84° |
| 2026-05-06 13:10 | 33.93594 | -118.38455 | 124 ft | 15 kts | 83° |
| 2026-05-06 13:10 | 33.93603 | -118.38375 | 129 ft | 6 kts | 81° |
| 2026-05-06 13:10 | 33.93610 | -118.38327 | 125 ft | 6 kts | 81° |
| 2026-05-06 13:11 | 33.93612 | -118.38311 | 127 ft | 0 kts | 81° |
| 2026-05-06 13:18 | 33.93613 | -118.38306 | 127 ft | 3 kts | 80° |
| 2026-05-06 13:19 | 33.93640 | -118.38280 | 126 ft | 6 kts | 7° |
| 2026-05-06 13:19 | 33.93683 | -118.38280 | 128 ft | 6 kts | 353° |
| 2026-05-06 13:19 | 33.93730 | -118.38288 | 127 ft | 7 kts | 352° |
| 2026-05-06 13:19 | 33.93782 | -118.38297 | 128 ft | 9 kts | 353° |
| 2026-05-06 13:20 | 33.93849 | -118.38306 | 128 ft | 10 kts | 353° |
| 2026-05-06 13:20 | 33.93919 | -118.38316 | 127 ft | 10 kts | 350° |
| 2026-05-06 13:20 | 33.93950 | -118.38379 | 125 ft | 10 kts | 260° |
| 2026-05-06 13:20 | 33.93935 | -118.38507 | 127 ft | 29 kts | 263° |
| 2026-05-06 13:21 | 33.93880 | -118.39043 | 126 ft | 99 kts | 263° |
| 2026-05-06 13:21 | 33.93769 | -118.40121 | 130 ft | 157 kts | 263° |
| 2026-05-06 13:21 | 33.93636 | -118.41573 | 330 ft | 181 kts | 264° |
| 2026-05-06 13:21 | 33.93480 | -118.43070 | 903 ft | 181 kts | 263° |
| 2026-05-06 13:22 | 33.93303 | -118.44559 | 1468 ft | 183 kts | 259° |
| 2026-05-06 13:22 | 33.92966 | -118.46111 | 1794 ft | 202 kts | 250° |
| 2026-05-06 13:22 | 33.92316 | -118.47659 | 2132 ft | 217 kts | 231° |
| 2026-05-06 13:22 | 33.91222 | -118.49049 | 2390 ft | 239 kts | 225° |
| 2026-05-06 13:23 | 33.90016 | -118.50533 | 2883 ft | 253 kts | 228° |
| 2026-05-06 13:23 | 33.88843 | -118.52125 | 3643 ft | 256 kts | 231° |
| 2026-05-06 13:23 | 33.87687 | -118.53777 | 4408 ft | 261 kts | 232° |
| 2026-05-06 13:23 | 33.86441 | -118.55398 | 5047 ft | 270 kts | 220° |
| 2026-05-06 13:24 | 33.84714 | -118.56366 | 5608 ft | 281 kts | 188° |
| 2026-05-06 13:24 | 33.82773 | -118.56272 | 6259 ft | 286 kts | 166° |
| 2026-05-06 13:24 | 33.80855 | -118.55622 | 7006 ft | 288 kts | 161° |
| 2026-05-06 13:24 | 33.78942 | -118.54867 | 7733 ft | 291 kts | 159° |
| 2026-05-06 13:25 | 33.77020 | -118.54134 | 8567 ft | 289 kts | 162° |
| 2026-05-06 13:25 | 33.75060 | -118.53527 | 9319 ft | 294 kts | 164° |
| 2026-05-06 13:25 | 33.73050 | -118.52968 | 10019 ft | 298 kts | 164° |
| 2026-05-06 13:25 | 33.71048 | -118.52282 | 10450 ft | 304 kts | 150° |
| 2026-05-06 13:26 | 33.69410 | -118.50632 | 10593 ft | 318 kts | 120° |
| 2026-05-06 13:26 | 33.68498 | -118.48208 | 10751 ft | 332 kts | 105° |
| 2026-05-06 13:26 | 33.67740 | -118.45487 | 10972 ft | 354 kts | 106° |
| 2026-05-06 13:26 | 33.66922 | -118.42648 | 11546 ft | 366 kts | 106° |
| 2026-05-06 13:27 | 33.66068 | -118.39737 | 12272 ft | 374 kts | 106° |
| 2026-05-06 13:27 | 33.65190 | -118.36775 | 13170 ft | 378 kts | 106° |
| 2026-05-06 13:27 | 33.64408 | -118.33774 | 13873 ft | 377 kts | 96° |
| 2026-05-06 13:27 | 33.64278 | -118.30643 | 14381 ft | 379 kts | 85° |
| 2026-05-06 13:28 | 33.64351 | -118.27458 | 15086 ft | 384 kts | 85° |
| 2026-05-06 13:28 | 33.64404 | -118.24249 | 15978 ft | 385 kts | 85° |
| 2026-05-06 13:28 | 33.64437 | -118.21069 | 16801 ft | 388 kts | 86° |
| 2026-05-06 13:28 | 33.64457 | -118.17806 | 17558 ft | 393 kts | 86° |
| 2026-05-06 13:29 | 33.64466 | -118.14507 | 18299 ft | 398 kts | 86° |
| 2026-05-06 13:29 | 33.64469 | -118.11167 | 18975 ft | 402 kts | 86° |
| 2026-05-06 13:29 | 33.64467 | -118.07798 | 19657 ft | 405 kts | 86° |
| 2026-05-06 13:29 | 33.64463 | -118.04405 | 20358 ft | 408 kts | 86° |
| 2026-05-06 13:30 | 33.64459 | -118.00984 | 21041 ft | 411 kts | 86° |
| 2026-05-06 13:30 | 33.64453 | -117.97537 | 21698 ft | 415 kts | 86° |
| 2026-05-06 13:30 | 33.64447 | -117.94107 | 22332 ft | 419 kts | 85° |
| 2026-05-06 13:30 | 33.64440 | -117.90600 | 23008 ft | 422 kts | 85° |
| 2026-05-06 13:31 | 33.64432 | -117.87069 | 23664 ft | 425 kts | 85° |
| 2026-05-06 13:31 | 33.64424 | -117.83511 | 24194 ft | 429 kts | 85° |
| 2026-05-06 13:31 | 33.64427 | -117.79920 | 24750 ft | 430 kts | 83° |
| 2026-05-06 13:31 | 33.64783 | -117.76384 | 25260 ft | 427 kts | 74° |
| 2026-05-06 13:32 | 33.65478 | -117.72915 | 25775 ft | 428 kts | 72° |
| 2026-05-06 13:32 | 33.66223 | -117.69444 | 26285 ft | 431 kts | 72° |
| 2026-05-06 13:32 | 33.66965 | -117.65946 | 26815 ft | 434 kts | 72° |
| 2026-05-06 13:32 | 33.67678 | -117.62461 | 27315 ft | 437 kts | 72° |
| 2026-05-06 13:33 | 33.68384 | -117.58901 | 27819 ft | 440 kts | 73° |
| 2026-05-06 13:33 | 33.69079 | -117.55307 | 28278 ft | 443 kts | 73° |
| 2026-05-06 13:33 | 33.69770 | -117.51693 | 28725 ft | 446 kts | 73° |
| 2026-05-06 13:33 | 33.70461 | -117.48047 | 29160 ft | 449 kts | 73° |
| 2026-05-06 13:34 | 33.71157 | -117.44390 | 29687 ft | 450 kts | 73° |
| 2026-05-06 13:34 | 33.71856 | -117.40716 | 30192 ft | 451 kts | 73° |
| 2026-05-06 13:34 | 33.72552 | -117.37050 | 30696 ft | 450 kts | 73° |
| 2026-05-06 13:34 | 33.73233 | -117.33446 | 31243 ft | 447 kts | 73° |
| 2026-05-06 13:35 | 33.73919 | -117.29816 | 31757 ft | 445 kts | 73° |
| 2026-05-06 13:35 | 33.74603 | -117.26196 | 32240 ft | 444 kts | 73° |
| 2026-05-06 13:35 | 33.75201 | -117.22559 | 32692 ft | 445 kts | 79° |
| 2026-05-06 13:35 | 33.75266 | -117.18821 | 33119 ft | 450 kts | 87° |
| 2026-05-06 13:36 | 33.75104 | -117.15065 | 33565 ft | 450 kts | 88° |
| 2026-05-06 13:36 | 33.74945 | -117.11312 | 33992 ft | 449 kts | 88° |
| 2026-05-06 13:36 | 33.74822 | -117.07571 | 34358 ft | 448 kts | 87° |
| 2026-05-06 13:36 | 33.74733 | -117.03821 | 34605 ft | 449 kts | 86° |
| 2026-05-06 13:37 | 33.74659 | -117.00110 | 34842 ft | 451 kts | 86° |
| 2026-05-06 13:37 | 33.74583 | -116.96337 | 35042 ft | 454 kts | 87° |
| 2026-05-06 13:37 | 33.74502 | -116.92525 | 35082 ft | 458 kts | 87° |
| 2026-05-06 13:38 | 33.74326 | -116.84904 | 35124 ft | 454 kts | 87° |
| 2026-05-06 13:38 | 33.74147 | -116.77353 | 35117 ft | 451 kts | 87° |
| 2026-05-06 13:39 | 33.73967 | -116.69823 | 35094 ft | 450 kts | 87° |
| 2026-05-06 13:39 | 33.73783 | -116.62354 | 35077 ft | 450 kts | 87° |
| 2026-05-06 13:40 | 33.73597 | -116.54816 | 35076 ft | 453 kts | 88° |
| 2026-05-06 13:40 | 33.73403 | -116.47183 | 35055 ft | 460 kts | 88° |
| 2026-05-06 13:41 | 33.73198 | -116.39484 | 35048 ft | 462 kts | 88° |
| 2026-05-06 13:41 | 33.72992 | -116.31815 | 35032 ft | 462 kts | 88° |
| 2026-05-06 13:42 | 33.72779 | -116.24107 | 35033 ft | 462 kts | 89° |
| 2026-05-06 13:42 | 33.72562 | -116.16403 | 35027 ft | 461 kts | 89° |
| 2026-05-06 13:43 | 33.72360 | -116.08725 | 35027 ft | 458 kts | 86° |
| 2026-05-06 13:43 | 33.72745 | -116.04965 | 35007 ft | 450 kts | 70° |
| 2026-05-06 13:43 | 33.73751 | -116.01495 | 35041 ft | 446 kts | 68° |
| 2026-05-06 13:44 | 33.75837 | -115.94450 | 35034 ft | 449 kts | 69° |
| 2026-05-06 13:44 | 33.77861 | -115.87326 | 35033 ft | 452 kts | 69° |
| 2026-05-06 13:45 | 33.79862 | -115.80126 | 35029 ft | 455 kts | 69° |
| 2026-05-06 13:45 | 33.82846 | -115.69299 | 35036 ft | 458 kts | 69° |
| 2026-05-06 13:46 | 33.84848 | -115.62019 | 35029 ft | 459 kts | 70° |
| 2026-05-06 13:46 | 33.86852 | -115.54718 | 35028 ft | 460 kts | 70° |
| 2026-05-06 13:47 | 33.88854 | -115.47402 | 35030 ft | 460 kts | 70° |
| 2026-05-06 13:47 | 33.90841 | -115.40128 | 35031 ft | 460 kts | 70° |
| 2026-05-06 13:48 | 33.92834 | -115.32810 | 35031 ft | 460 kts | 70° |
| 2026-05-06 13:48 | 33.94824 | -115.25479 | 35021 ft | 461 kts | 70° |
| 2026-05-06 13:49 | 33.96816 | -115.18129 | 35024 ft | 462 kts | 70° |
| 2026-05-06 13:49 | 33.98794 | -115.10810 | 35021 ft | 463 kts | 70° |
| 2026-05-06 13:50 | 34.00784 | -115.03424 | 35014 ft | 464 kts | 70° |
| 2026-05-06 13:50 | 34.02775 | -114.96013 | 35002 ft | 465 kts | 70° |
| 2026-05-06 13:51 | 34.04764 | -114.88590 | 35012 ft | 466 kts | 70° |
| 2026-05-06 13:51 | 34.06756 | -114.81139 | 35007 ft | 467 kts | 70° |
| 2026-05-06 13:52 | 34.08731 | -114.73728 | 35006 ft | 467 kts | 70° |